Time;durP1;ratioP1;P1;durP2;ratioP2;P2;SDS_P1;SDS_P2;PMS_P1;PMS_P2;Temp;Humidity;BMP_temperature;BMP_pressure;BME280_temperature;BME280_humidity;BME280_pressure;Samples;Min_cycle;Max_cycle;Signal;HPM_P1;HPM_P2
2022/12/07 00:01:21;;;;;;;3.67;0.82;;;4.50;99.90;;;;;;5116435;28;20054;-67
2022/12/07 00:03:49;;;;;;;2.75;0.70;;;4.20;99.90;;;;;;5135656;28;20042;-68
2022/12/07 00:06:16;;;;;;;4.88;0.68;;;4.10;99.90;;;;;;5136405;27;20130;-68
2022/12/07 00:08:43;;;;;;;5.40;0.88;;;5.00;99.90;;;;;;5121307;27;20103;-68
2022/12/07 00:11:11;;;;;;;4.43;0.52;;;4.80;99.90;;;;;;5139166;27;20035;-67
2022/12/07 00:13:38;;;;;;;2.67;0.65;;;4.30;99.90;;;;;;5103341;27;20462;-68
2022/12/07 00:16:16;;;;;;;6.93;0.73;;;4.70;99.90;;;;;;5120419;27;20039;-68
2022/12/07 00:18:42;;;;;;;2.67;0.63;;;4.30;99.90;;;;;;5139379;27;20448;-68
2022/12/07 00:21:21;;;;;;;4.15;0.50;;;4.90;99.90;;;;;;5138410;27;20068;-68
2022/12/07 00:23:48;;;;;;;2.35;0.70;;;4.30;99.90;;;;;;5138326;27;20031;-68
2022/12/07 00:26:20;;;;;;;2.10;0.60;;;4.30;99.90;;;;;;5138548;27;20455;-67
2022/12/07 00:28:48;;;;;;;3.60;0.60;;;4.20;99.90;;;;;;5120978;27;20098;-68
2022/12/07 00:31:16;;;;;;;3.17;0.40;;;4.40;99.90;;;;;;5102570;27;20096;-68
2022/12/07 00:33:42;;;;;;;3.03;0.35;;;4.50;99.90;;;;;;5138981;27;20362;-68
2022/12/07 00:36:10;;;;;;;1.83;0.30;;;4.10;99.90;;;;;;5138121;27;20035;-68
2022/12/07 00:38:38;;;;;;;1.60;0.50;;;4.30;99.90;;;;;;5120221;27;20100;-68
2022/12/07 00:41:06;;;;;;;3.13;0.63;;;4.30;99.90;;;;;;5138014;27;20126;-67
2022/12/07 00:43:32;;;;;;;2.70;0.30;;;4.70;99.90;;;;;;5137933;27;20428;-68
2022/12/07 00:45:58;;;;;;;3.08;0.40;;;4.40;99.90;;;;;;5103615;27;20080;-68
2022/12/07 00:48:25;;;;;;;2.35;0.30;;;4.40;99.90;;;;;;5137835;27;20039;-68
2022/12/07 00:50:51;;;;;;;2.55;0.30;;;4.70;99.90;;;;;;5119737;27;20039;-68
2022/12/07 00:53:17;;;;;;;3.30;0.28;;;5.00;99.90;;;;;;5138412;27;20527;-68
2022/12/07 00:55:43;;;;;;;1.30;0.60;;;4.70;99.90;;;;;;5138214;27;20082;-68
2022/12/07 00:58:09;;;;;;;3.63;0.40;;;4.80;99.90;;;;;;5119399;27;20075;-68
2022/12/07 01:00:37;;;;;;;2.30;0.50;;;5.40;99.90;;;;;;5137678;27;20035;-68
2022/12/07 01:03:05;;;;;;;0.90;0.20;;;5.00;99.90;;;;;;5137511;27;20035;-68
2022/12/07 01:05:30;;;;;;;2.05;0.57;;;5.00;99.90;;;;;;5137533;27;20047;-68
2022/12/07 01:07:56;;;;;;;1.35;0.25;;;4.80;99.90;;;;;;5137445;27;20084;-68
2022/12/07 01:10:22;;;;;;;1.90;0.22;;;4.80;99.90;;;;;;5137633;27;20050;-68
2022/12/07 01:12:48;;;;;;;0.80;0.35;;;4.50;99.90;;;;;;5138037;27;20447;-68
2022/12/07 01:15:13;;;;;;;2.80;0.25;;;4.60;99.90;;;;;;5102265;27;20039;-68
2022/12/07 01:17:39;;;;;;;1.25;0.40;;;4.80;99.90;;;;;;5118316;27;20043;-68
2022/12/07 01:20:06;;;;;;;3.38;0.43;;;4.80;99.90;;;;;;5137822;27;20478;-68
2022/12/07 01:22:35;;;;;;;2.20;0.38;;;4.40;99.90;;;;;;5137665;27;20046;-68
2022/12/07 01:25:01;;;;;;;2.33;0.30;;;4.70;99.90;;;;;;5137182;27;20130;-67
2022/12/07 01:27:27;;;;;;;4.90;0.43;;;4.40;99.90;;;;;;5118958;27;20078;-68
2022/12/07 01:29:52;;;;;;;1.90;0.38;;;4.80;99.90;;;;;;5138244;27;20407;-68
2022/12/07 01:32:18;;;;;;;2.20;0.38;;;4.80;99.90;;;;;;5137057;27;20065;-68
2022/12/07 01:34:44;;;;;;;3.40;0.50;;;4.80;99.90;;;;;;5102542;27;20459;-68
2022/12/07 01:37:10;;;;;;;3.00;0.40;;;4.50;99.90;;;;;;5136921;27;20282;-67
2022/12/07 01:39:35;;;;;;;3.03;0.40;;;4.60;99.90;;;;;;5136851;27;20039;-67
2022/12/07 01:42:01;;;;;;;1.23;0.30;;;4.90;99.90;;;;;;5136878;27;20050;-68
2022/12/07 01:44:32;;;;;;;3.40;0.50;;;4.90;99.90;;;;;;5101394;27;20039;-68
2022/12/07 01:47:01;;;;;;;1.98;0.32;;;4.80;99.90;;;;;;5119086;27;20042;-68
2022/12/07 01:49:42;;;;;;;5.72;0.40;;;5.10;99.90;;;;;;5136781;27;20046;-67
2022/12/07 01:52:12;;;;;;;5.53;0.38;;;4.50;99.90;;;;;;5137296;27;20076;-68
2022/12/07 01:54:38;;;;;;;3.85;0.70;;;4.60;99.90;;;;;;5136423;27;20054;-68
2022/12/07 01:57:06;;;;;;;2.92;0.40;;;4.80;99.90;;;;;;5136569;27;20051;-67
2022/12/07 01:59:32;;;;;;;4.55;0.40;;;4.70;99.90;;;;;;5136821;27;20114;-67
2022/12/07 02:01:57;;;;;;;4.07;0.40;;;5.40;99.90;;;;;;5136487;27;20107;-67
2022/12/07 02:04:23;;;;;;;4.90;0.57;;;4.60;99.90;;;;;;5136324;27;20100;-67
2022/12/07 02:06:50;;;;;;;3.78;0.30;;;4.80;99.90;;;;;;5136392;27;20039;-68
2022/12/07 02:09:16;;;;;;;6.63;0.57;;;5.00;99.90;;;;;;5118909;27;20099;-68
2022/12/07 02:11:42;;;;;;;1.90;0.40;;;4.50;99.90;;;;;;5136854;27;20439;-67
2022/12/07 02:14:07;;;;;;;4.75;0.52;;;5.00;99.90;;;;;;5117900;27;20459;-67
2022/12/07 02:16:51;;;;;;;5.15;0.43;;;5.60;99.90;;;;;;5136959;27;20045;-67
2022/12/07 02:19:36;;;;;;;5.00;0.38;;;4.70;99.90;;;;;;5136834;27;20042;-67
2022/12/07 02:22:27;;;;;;;1.75;0.32;;;4.50;99.90;;;;;;5136109;27;20043;-67
2022/12/07 02:25:01;;;;;;;1.13;0.20;;;4.60;99.90;;;;;;5118740;27;20042;-67
2022/12/07 02:27:52;;;;;;;3.72;0.20;;;4.50;99.90;;;;;;5117761;27;20050;-67
2022/12/07 02:30:20;;;;;;;3.42;0.25;;;5.20;99.90;;;;;;5107124;27;20498;-67
2022/12/07 02:32:55;;;;;;;2.72;0.25;;;4.60;99.90;;;;;;5117943;27;20050;-67
2022/12/07 02:35:32;;;;;;;2.50;0.30;;;4.40;99.90;;;;;;5136485;27;20412;-68
2022/12/07 02:38:39;;;;;;;4.13;0.30;;;4.50;99.90;;;;;;5135815;27;20046;-68
2022/12/07 02:41:24;;;;;;;4.88;0.30;;;4.40;99.90;;;;;;5124640;27;20051;-68
2022/12/07 02:43:56;;;;;;;3.15;0.30;;;5.10;99.90;;;;;;5117816;27;20039;-68
2022/12/07 02:46:25;;;;;;;4.47;0.30;;;5.00;99.90;;;;;;5117821;27;20043;-67
2022/12/07 02:48:53;;;;;;;1.23;0.40;;;4.60;99.90;;;;;;5135513;27;20039;-67
2022/12/07 02:51:19;;;;;;;5.20;0.40;;;4.70;99.90;;;;;;5135509;27;20046;-67
2022/12/07 02:53:45;;;;;;;2.10;0.40;;;4.60;99.90;;;;;;5116957;27;20050;-67
2022/12/07 02:56:29;;;;;;;1.83;0.20;;;4.50;99.90;;;;;;5100781;27;20051;-68
2022/12/07 02:59:14;;;;;;;1.50;0.17;;;4.30;99.90;;;;;;5135125;27;20467;-67
2022/12/07 03:02:04;;;;;;;0.90;0.10;;;4.50;99.90;;;;;;5117220;27;20057;-68
2022/12/07 03:04:44;;;;;;;2.97;0.20;;;4.00;99.90;;;;;;5134991;27;20554;-67
2022/12/07 03:07:36;;;;;;;2.90;0.22;;;4.30;99.90;;;;;;5135320;27;20130;-67
2022/12/07 03:10:29;;;;;;;1.88;0.30;;;4.20;99.90;;;;;;5135129;27;20078;-68
2022/12/07 03:13:08;;;;;;;4.38;0.47;;;4.00;99.90;;;;;;5135165;27;20043;-68
2022/12/07 03:15:53;;;;;;;4.22;1.17;;;4.80;99.90;;;;;;5135582;27;20043;-68
2022/12/07 03:18:23;;;;;;;3.28;0.40;;;5.00;99.90;;;;;;5135109;27;20045;-68
2022/12/07 03:20:52;;;;;;;4.70;0.60;;;4.80;99.90;;;;;;5116915;27;20051;-68
2022/12/07 03:23:19;;;;;;;4.43;0.30;;;4.80;99.90;;;;;;5134804;27;20444;-66
2022/12/07 03:25:53;;;;;;;2.13;0.20;;;4.90;99.90;;;;;;5134873;27;20035;-65
2022/12/07 03:28:24;;;;;;;5.30;0.40;;;4.40;99.90;;;;;;5117091;27;20086;-65
2022/12/07 03:31:02;;;;;;;0.70;0.20;;;4.50;99.90;;;;;;5151474;27;20046;-65
2022/12/07 03:33:36;;;;;;;3.00;0.30;;;4.70;99.90;;;;;;5100272;27;20055;-65
2022/12/07 03:36:06;;;;;;;;;;;4.50;99.90;;;;;;5135219;27;20051;-65
2022/12/07 03:38:42;;;;;;;4.15;0.30;;;5.00;99.90;;;;;;5117353;28;20021;-65
2022/12/07 03:41:37;;;;;;;2.83;0.32;;;5.00;99.90;;;;;;5135565;27;20131;-65
2022/12/07 03:44:04;;;;;;;2.05;0.25;;;4.20;99.90;;;;;;5098982;27;20406;-65
2022/12/07 03:46:52;;;;;;;4.07;0.20;;;4.20;99.90;;;;;;5116450;28;20078;-65
2022/12/07 03:49:21;;;;;;;3.88;0.30;;;4.20;99.90;;;;;;5135233;28;20047;-65
2022/12/07 03:52:10;;;;;;;2.72;0.30;;;4.50;99.90;;;;;;5135458;28;20122;-65
2022/12/07 03:54:51;;;;;;;2.20;0.30;;;4.10;99.90;;;;;;5123274;28;20095;-65
2022/12/07 03:57:18;;;;;;;6.30;0.32;;;4.10;99.90;;;;;;5135102;28;20039;-65
2022/12/07 03:59:44;;;;;;;4.65;0.38;;;4.60;99.90;;;;;;5134584;28;20047;-65
2022/12/07 04:02:12;;;;;;;2.47;0.30;;;4.30;99.90;;;;;;5116126;28;20054;-65
2022/12/07 04:04:38;;;;;;;1.85;0.30;;;4.30;99.90;;;;;;5134629;28;20126;-65
2022/12/07 04:07:05;;;;;;;2.53;0.30;;;4.40;99.90;;;;;;5099561;28;20085;-65
2022/12/07 04:09:30;;;;;;;2.17;0.30;;;4.30;99.90;;;;;;5134310;28;20093;-65
2022/12/07 04:11:56;;;;;;;2.47;0.20;;;4.70;99.90;;;;;;5116021;28;20078;-65
2022/12/07 04:14:22;;;;;;;4.38;0.40;;;4.10;99.90;;;;;;5116190;28;20082;-65
2022/12/07 04:16:50;;;;;;;3.83;0.30;;;4.50;99.90;;;;;;5100094;28;20039;-65
2022/12/07 04:19:18;;;;;;;2.60;0.38;;;4.90;99.90;;;;;;5115617;28;20039;-65
2022/12/07 04:21:44;;;;;;;3.00;0.30;;;4.90;99.90;;;;;;5134253;28;20051;-65
2022/12/07 04:24:11;;;;;;;1.85;0.15;;;4.90;99.90;;;;;;5115947;28;20039;-65
2022/12/07 04:26:36;;;;;;;0.98;0.20;;;5.00;99.90;;;;;;5116134;28;20468;-65
2022/12/07 04:29:02;;;;;;;1.77;0.25;;;4.60;99.90;;;;;;5134531;28;20083;-65
2022/12/07 04:31:28;;;;;;;2.30;0.50;;;4.40;99.90;;;;;;5134177;28;20475;-65
2022/12/07 04:33:54;;;;;;;3.10;0.30;;;4.40;99.90;;;;;;5134110;28;20039;-68
2022/12/07 04:36:20;;;;;;;2.30;0.20;;;4.70;99.90;;;;;;5115837;28;20047;-68
2022/12/07 04:38:46;;;;;;;0.55;0.20;;;4.40;99.90;;;;;;5134308;28;20039;-68
2022/12/07 04:41:12;;;;;;;1.27;0.17;;;4.50;99.90;;;;;;5134916;28;20043;-68
2022/12/07 04:43:38;;;;;;;3.60;0.40;;;4.00;99.90;;;;;;5134015;28;20603;-68
2022/12/07 04:46:03;;;;;;;0.35;0.13;;;4.70;99.90;;;;;;5134062;28;20047;-68
2022/12/07 04:48:30;;;;;;;0.70;0.10;;;3.90;99.90;;;;;;5116232;28;20045;-68
2022/12/07 04:50:56;;;;;;;1.17;0.20;;;4.30;99.90;;;;;;5115678;28;20482;-68
2022/12/07 04:53:22;;;;;;;0.95;0.15;;;4.10;99.90;;;;;;5100475;27;20114;-68
2022/12/07 04:55:47;;;;;;;0.50;0.15;;;4.50;99.90;;;;;;5138731;27;20386;-68
2022/12/07 04:58:13;;;;;;;1.73;0.25;;;4.50;99.90;;;;;;5137717;27;20111;-68
2022/12/07 05:00:39;;;;;;;2.35;0.20;;;4.10;99.90;;;;;;5136850;27;20108;-67
2022/12/07 05:03:05;;;;;;;3.90;0.20;;;4.70;99.90;;;;;;5137496;27;20055;-67
2022/12/07 05:05:31;;;;;;;2.83;0.20;;;4.30;99.90;;;;;;5138302;27;20126;-66
2022/12/07 05:07:56;;;;;;;1.75;0.20;;;4.40;99.90;;;;;;5137438;27;20517;-66
2022/12/07 05:10:22;;;;;;;3.53;0.20;;;4.10;99.90;;;;;;5137843;27;20047;-65
2022/12/07 05:12:48;;;;;;;0.93;0.10;;;4.20;99.90;;;;;;5137376;27;20087;-66
2022/12/07 05:15:15;;;;;;;2.83;0.38;;;5.00;99.90;;;;;;5119159;27;20047;-66
2022/12/07 05:17:41;;;;;;;1.27;0.28;;;4.00;99.90;;;;;;5137210;27;20058;-65
2022/12/07 05:20:08;;;;;;;5.57;0.30;;;4.10;99.90;;;;;;5118824;27;20394;-66
2022/12/07 05:22:34;;;;;;;3.28;0.30;;;4.10;99.90;;;;;;5137066;27;20043;-66
2022/12/07 05:24:59;;;;;;;1.10;0.28;;;4.60;99.90;;;;;;5137117;27;20123;-65
2022/12/07 05:27:25;;;;;;;1.10;0.20;;;4.60;99.90;;;;;;5137395;27;20078;-66
2022/12/07 05:29:51;;;;;;;3.67;0.40;;;4.00;99.90;;;;;;5137027;27;20390;-66
2022/12/07 05:32:17;;;;;;;2.05;0.30;;;4.40;99.90;;;;;;5137011;27;20054;-66
2022/12/07 05:34:43;;;;;;;0.85;0.28;;;4.30;99.90;;;;;;5137740;27;20054;-66
2022/12/07 05:37:09;;;;;;;2.90;0.20;;;4.10;99.90;;;;;;5136968;27;20395;-66
2022/12/07 05:39:37;;;;;;;2.15;0.20;;;4.20;99.90;;;;;;5137174;27;20043;-66
2022/12/07 05:42:12;;;;;;;2.58;0.20;;;4.00;99.90;;;;;;5119316;27;20039;-65
2022/12/07 05:44:45;;;;;;;2.80;0.38;;;3.90;99.90;;;;;;5137333;27;20043;-66
2022/12/07 05:47:15;;;;;;;2.25;0.20;;;3.80;99.90;;;;;;5119468;27;20055;-66
2022/12/07 05:49:40;;;;;;;2.40;0.38;;;4.50;99.90;;;;;;5136658;27;20072;-65
2022/12/07 05:52:07;;;;;;;1.95;0.30;;;4.30;99.90;;;;;;5118453;27;20039;-66
2022/12/07 05:54:33;;;;;;;2.50;0.30;;;3.80;99.90;;;;;;5136300;27;20058;-66
2022/12/07 05:56:59;;;;;;;4.93;0.50;;;4.10;99.90;;;;;;5136531;27;20039;-66
2022/12/07 05:59:27;;;;;;;2.92;0.30;;;4.00;99.90;;;;;;5118175;27;20039;-66
2022/12/07 06:02:04;;;;;;;2.13;0.30;;;4.30;99.90;;;;;;5118057;27;20502;-66
2022/12/07 06:04:33;;;;;;;4.00;0.20;;;3.60;99.90;;;;;;5136460;27;20130;-66
2022/12/07 06:06:58;;;;;;;1.67;0.20;;;4.70;99.90;;;;;;5136337;27;20043;-65
2022/12/07 06:09:26;;;;;;;1.77;0.30;;;4.60;99.90;;;;;;5136542;27;20489;-66
2022/12/07 06:14:36;;;;;;;1.45;0.35;;;5.20;99.90;;;;;;5136231;27;20136;-66
2022/12/07 06:17:02;;;;;;;2.00;0.40;;;4.50;99.90;;;;;;5136131;27;20088;-65
2022/12/07 06:19:28;;;;;;;2.22;0.25;;;4.30;99.90;;;;;;5136599;27;20090;-68
2022/12/07 06:21:54;;;;;;;3.42;0.30;;;3.80;99.90;;;;;;5136585;27;20082;-68
2022/12/07 06:24:19;;;;;;;1.98;0.38;;;4.40;99.90;;;;;;5135868;27;20482;-67
2022/12/07 06:26:45;;;;;;;1.63;0.30;;;4.30;99.90;;;;;;5136173;27;20078;-67
2022/12/07 06:29:12;;;;;;;2.58;0.40;;;3.80;99.90;;;;;;5117524;27;20463;-67
2022/12/07 06:31:38;;;;;;;3.70;0.50;;;4.20;99.90;;;;;;5117783;27;20043;-67
2022/12/07 06:34:07;;;;;;;7.28;0.40;;;4.10;99.90;;;;;;5117470;27;20041;-67
2022/12/07 06:36:32;;;;;;;5.90;0.50;;;3.70;99.90;;;;;;5135718;27;20071;-67
2022/12/07 06:38:58;;;;;;;5.32;0.52;;;4.30;99.90;;;;;;5117357;27;20090;-69
2022/12/07 06:41:24;;;;;;;5.47;0.43;;;3.70;99.90;;;;;;5135272;27;20444;-69
2022/12/07 06:43:50;;;;;;;2.83;0.77;;;4.00;99.90;;;;;;5135547;27;20115;-68
2022/12/07 06:46:16;;;;;;;4.32;0.82;;;3.80;99.90;;;;;;5135531;27;20095;-68
2022/12/07 06:48:42;;;;;;;3.45;0.40;;;4.40;99.90;;;;;;5135448;27;20046;-68
2022/12/07 06:51:09;;;;;;;3.00;0.40;;;4.00;99.90;;;;;;5135739;27;20039;-68
2022/12/07 06:53:35;;;;;;;5.35;0.60;;;3.70;99.90;;;;;;5135399;27;20043;-68
2022/12/07 06:56:00;;;;;;;5.78;0.43;;;4.70;99.90;;;;;;5100366;27;20475;-66
2022/12/07 06:58:26;;;;;;;2.95;0.50;;;3.80;99.90;;;;;;5136098;27;20051;-66
2022/12/07 07:00:52;;;;;;;3.45;0.68;;;4.70;99.90;;;;;;5135253;27;20527;-66
2022/12/07 07:03:18;;;;;;;3.45;0.50;;;4.20;99.90;;;;;;5135072;27;20039;-66
2022/12/07 07:05:44;;;;;;;1.83;0.38;;;3.80;99.90;;;;;;5135162;27;20047;-66
2022/12/07 07:08:11;;;;;;;2.22;0.40;;;3.70;99.90;;;;;;5135123;27;20039;-66
2022/12/07 07:10:37;;;;;;;4.15;0.40;;;3.70;99.90;;;;;;5116891;27;20051;-66
2022/12/07 07:13:03;;;;;;;2.92;0.40;;;3.60;99.90;;;;;;5116823;27;20047;-66
2022/12/07 07:15:30;;;;;;;5.07;0.40;;;4.40;99.90;;;;;;5134510;27;20175;-66
2022/12/07 07:17:56;;;;;;;3.50;0.40;;;3.60;99.90;;;;;;5135005;27;20043;-66
2022/12/07 07:20:22;;;;;;;2.70;0.50;;;4.40;99.90;;;;;;5134929;27;20046;-66
2022/12/07 07:22:48;;;;;;;0.95;0.40;;;4.00;99.90;;;;;;5116524;27;20189;-66
2022/12/07 07:25:15;;;;;;;4.72;0.50;;;4.00;99.90;;;;;;5099915;27;20081;-65
2022/12/07 07:27:41;;;;;;;3.60;0.60;;;3.70;99.90;;;;;;5116771;27;20398;-66
2022/12/07 07:30:07;;;;;;;5.45;1.02;;;4.00;99.90;;;;;;5134862;27;20047;-66
2022/12/07 07:32:33;;;;;;;5.38;0.47;;;3.40;99.90;;;;;;5116451;28;20043;-66
2022/12/07 07:34:58;;;;;;;1.70;0.50;;;4.00;99.90;;;;;;5134398;27;20070;-66
2022/12/07 07:37:26;;;;;;;4.47;0.60;;;4.30;99.90;;;;;;5134715;27;20108;-66
2022/12/07 07:39:51;;;;;;;4.50;0.55;;;3.70;99.90;;;;;;5116519;28;20096;-65
2022/12/07 07:42:17;;;;;;;1.75;0.38;;;3.70;99.90;;;;;;5135183;27;20078;-66
2022/12/07 07:44:43;;;;;;;4.35;0.60;;;4.20;99.90;;;;;;5135053;27;20043;-66
2022/12/07 07:47:08;;;;;;;3.50;0.60;;;3.90;99.90;;;;;;5116233;28;20161;-66
2022/12/07 07:49:34;;;;;;;4.65;0.45;;;3.70;99.90;;;;;;5116520;28;20047;-66
2022/12/07 07:52:00;;;;;;;2.65;0.30;;;3.60;99.90;;;;;;5134254;28;20535;-66
2022/12/07 07:54:26;;;;;;;4.60;0.50;;;3.80;99.90;;;;;;5134740;28;20054;-66
2022/12/07 07:56:52;;;;;;;2.75;0.30;;;3.90;99.90;;;;;;5099366;28;20055;-66
2022/12/07 07:59:18;;;;;;;4.88;0.40;;;3.70;99.90;;;;;;5135064;28;20051;-66
2022/12/07 08:01:44;;;;;;;1.52;0.20;;;3.50;99.90;;;;;;5099551;28;20104;-66
2022/12/07 08:04:10;;;;;;;1.75;0.20;;;3.60;99.90;;;;;;5117099;28;20455;-66
2022/12/07 08:06:36;;;;;;;2.90;0.30;;;3.40;99.90;;;;;;5134484;28;20082;-66
2022/12/07 08:09:02;;;;;;;4.18;0.40;;;3.60;99.90;;;;;;5134379;28;20042;-66
2022/12/07 08:11:28;;;;;;;2.15;0.30;;;3.40;99.90;;;;;;5134371;28;20039;-66
2022/12/07 08:13:54;;;;;;;4.07;0.30;;;4.70;99.90;;;;;;5116368;28;20049;-66
2022/12/07 08:16:20;;;;;;;1.75;0.40;;;4.60;99.90;;;;;;5134755;28;20061;-66
2022/12/07 08:18:45;;;;;;;1.60;0.40;;;3.60;99.90;;;;;;5134346;28;20455;-66
2022/12/07 08:21:14;;;;;;;1.67;0.30;;;4.30;99.90;;;;;;5134333;28;20111;-67
2022/12/07 08:23:39;;;;;;;1.80;0.43;;;3.90;99.90;;;;;;5134186;28;20079;-66
2022/12/07 08:26:14;;;;;;;3.42;0.65;;;3.90;99.90;;;;;;5134219;28;20078;-66
2022/12/07 08:28:40;;;;;;;2.70;1.02;;;4.30;99.90;;;;;;5118739;27;20205;-66
2022/12/07 08:31:10;;;;;;;5.72;0.50;;;5.20;99.90;;;;;;5138179;27;20103;-66
2022/12/07 08:33:36;;;;;;;2.97;0.30;;;3.90;99.90;;;;;;5138118;27;20039;-66
2022/12/07 08:36:07;;;;;;;1.95;0.40;;;4.40;99.90;;;;;;5120794;27;20095;-66
2022/12/07 08:38:35;;;;;;;4.47;0.60;;;4.00;99.90;;;;;;5138215;27;20140;-66
2022/12/07 08:41:00;;;;;;;3.97;0.40;;;4.40;99.90;;;;;;5138109;27;20055;-66
2022/12/07 08:43:26;;;;;;;2.80;0.73;;;4.10;99.90;;;;;;5120319;27;20046;-66
2022/12/07 08:46:18;;;;;;;3.45;0.50;;;4.40;99.90;;;;;;5138585;27;20039;-66
2022/12/07 08:49:09;;;;;;;3.42;0.65;;;4.20;99.90;;;;;;5138068;27;20039;-66
2022/12/07 08:51:35;;;;;;;4.57;1.08;;;4.70;99.90;;;;;;5128199;27;20051;-66
2022/12/07 08:54:06;;;;;;;2.75;0.68;;;4.80;99.90;;;;;;5119387;27;20050;-66
2022/12/07 08:56:32;;;;;;;4.97;0.80;;;4.30;99.90;;;;;;5137600;27;20510;-66
2022/12/07 08:58:58;;;;;;;4.20;1.00;;;4.10;99.90;;;;;;5102677;27;20050;-66
2022/12/07 09:01:24;;;;;;;3.85;0.82;;;4.40;99.90;;;;;;5137776;27;20050;-67
2022/12/07 09:03:49;;;;;;;3.92;0.60;;;5.20;99.90;;;;;;5119419;27;20039;-66
2022/12/07 09:06:15;;;;;;;5.68;0.40;;;4.10;99.90;;;;;;5137684;27;20049;-66
2022/12/07 09:08:46;;;;;;;4.00;0.60;;;4.60;99.90;;;;;;5138118;27;20051;-66
2022/12/07 09:11:11;;;;;;;3.65;0.60;;;4.30;99.90;;;;;;5119706;27;20078;-67
2022/12/07 09:13:37;;;;;;;2.67;0.47;;;4.40;99.90;;;;;;5137831;27;20075;-67
2022/12/07 09:16:03;;;;;;;2.33;0.50;;;4.60;99.90;;;;;;5137453;27;20424;-68
2022/12/07 09:18:28;;;;;;;2.92;0.60;;;4.30;99.90;;;;;;5118993;27;20122;-71
2022/12/07 09:20:55;;;;;;;1.67;0.40;;;4.70;99.90;;;;;;5119247;27;20470;-72
2022/12/07 09:23:21;;;;;;;3.53;0.57;;;4.20;99.90;;;;;;5118872;27;20043;-71
2022/12/07 09:25:47;;;;;;;1.83;0.40;;;4.30;99.90;;;;;;5137810;27;20126;-69
2022/12/07 09:28:12;;;;;;;4.03;0.40;;;4.70;99.90;;;;;;5137271;27;20075;-68
2022/12/07 09:30:38;;;;;;;2.97;0.38;;;4.70;99.90;;;;;;5137206;27;20091;-69
2022/12/07 09:33:03;;;;;;;4.60;0.40;;;4.40;99.90;;;;;;5119067;27;20391;-69
2022/12/07 09:35:29;;;;;;;2.83;0.40;;;5.00;99.90;;;;;;5137115;27;20119;-69
2022/12/07 09:37:55;;;;;;;2.55;0.43;;;5.20;99.90;;;;;;5118586;27;20050;-69
2022/12/07 09:40:23;;;;;;;2.33;0.30;;;4.90;99.90;;;;;;5118360;27;20049;-69
2022/12/07 09:42:53;;;;;;;3.92;0.40;;;5.70;99.90;;;;;;5136867;27;20118;-69
2022/12/07 09:45:25;;;;;;;5.25;0.47;;;4.80;99.90;;;;;;5136907;27;20054;-69
2022/12/07 09:47:51;;;;;;;3.13;0.30;;;4.60;99.90;;;;;;5119099;27;20502;-69
2022/12/07 09:50:22;;;;;;;2.17;0.40;;;5.00;99.90;;;;;;5118280;27;20054;-67
2022/12/07 09:52:49;;;;;;;3.95;0.55;;;4.80;99.90;;;;;;5136524;27;20040;-67
2022/12/07 09:55:22;;;;;;;4.47;0.90;;;5.10;99.90;;;;;;5136330;27;20058;-66
2022/12/07 09:57:48;;;;;;;3.13;0.65;;;5.10;99.90;;;;;;5136711;27;20066;-66
2022/12/07 10:00:21;;;;;;;2.25;0.35;;;4.80;99.90;;;;;;5118344;27;20126;-66
2022/12/07 10:02:57;;;;;;;4.40;0.95;;;5.00;99.90;;;;;;5118276;27;20053;-67
2022/12/07 10:05:45;;;;;;;3.47;0.40;;;5.00;99.90;;;;;;5118266;27;20043;-67
2022/12/07 10:08:12;;;;;;;4.93;0.50;;;5.00;99.90;;;;;;5137037;27;20054;-68
2022/12/07 10:10:39;;;;;;;3.65;0.50;;;5.40;99.90;;;;;;5136283;27;20107;-68
2022/12/07 10:13:14;;;;;;;5.07;0.50;;;5.70;99.90;;;;;;5118260;27;20047;-69
2022/12/07 10:15:41;;;;;;;4.00;0.60;;;5.40;99.90;;;;;;5117985;27;20045;-69
2022/12/07 10:18:30;;;;;;;2.90;0.50;;;5.20;99.90;;;;;;5136181;27;20095;-69
2022/12/07 10:21:08;;;;;;;5.60;0.77;;;5.30;99.90;;;;;;5118441;27;20047;-67
2022/12/07 10:23:42;;;;;;;4.45;0.60;;;6.00;99.90;;;;;;5136039;27;20043;-66
2022/12/07 10:26:40;;;;;;;6.57;0.60;;;5.30;99.90;;;;;;5136735;27;20039;-67
2022/12/07 10:29:11;;;;;;;4.10;0.50;;;5.50;99.90;;;;;;5063960;27;20109;-67
2022/12/07 10:31:39;;;;;;;4.03;0.47;;;5.30;99.90;;;;;;5118791;27;20477;-67
2022/12/07 10:34:24;;;;;;;3.47;0.30;;;5.70;99.90;;;;;;5101611;27;20100;-66
2022/12/07 10:36:51;;;;;;;5.40;0.68;;;5.50;99.90;;;;;;5135988;27;20554;-66
2022/12/07 10:39:23;;;;;;;4.60;0.43;;;6.10;99.90;;;;;;5117265;27;20062;-67
2022/12/07 10:42:03;;;;;;;2.67;0.40;;;6.10;99.90;;;;;;5135351;27;20546;-66
2022/12/07 10:44:34;;;;;;;4.25;0.50;;;5.30;99.90;;;;;;5135475;27;20046;-66
2022/12/07 10:47:13;;;;;;;2.95;0.30;;;5.30;99.90;;;;;;5135329;27;20047;-67
2022/12/07 10:50:28;;;;;;;3.58;0.75;;;5.40;99.90;;;;;;5136060;27;20051;-66
2022/12/07 10:53:03;;;;;;;3.38;0.73;;;5.60;99.90;;;;;;5052622;28;20066;-66
2022/12/07 10:55:50;;;;;;;4.18;0.57;;;5.50;99.90;;;;;;5122465;27;20403;-66
2022/12/07 10:58:27;;;;;;;1.90;0.70;;;5.70;99.90;;;;;;5135638;27;20060;-66
2022/12/07 11:00:58;;;;;;;4.13;0.50;;;5.60;99.90;;;;;;5135423;27;20044;-66
2022/12/07 11:03:24;;;;;;;2.55;0.32;;;5.50;99.90;;;;;;5117308;27;20122;-67
2022/12/07 11:05:53;;;;;;;6.00;0.73;;;5.50;99.90;;;;;;5136037;27;20474;-67
2022/12/07 11:08:22;;;;;;;4.53;0.47;;;5.50;99.90;;;;;;5134906;27;20078;-67
2022/12/07 11:11:04;;;;;;;2.38;0.30;;;5.90;99.90;;;;;;5134854;27;20047;-66
2022/12/07 11:13:57;;;;;;;4.05;0.40;;;5.60;99.90;;;;;;5135418;27;20595;-66
2022/12/07 11:16:35;;;;;;;1.10;0.20;;;6.20;99.90;;;;;;5117286;27;20046;-66
2022/12/07 11:19:21;;;;;;;3.47;0.30;;;5.60;99.90;;;;;;5099947;27;20047;-67
2022/12/07 11:21:58;;;;;;;1.80;0.30;;;5.70;99.90;;;;;;5135301;27;20067;-67
2022/12/07 11:24:49;;;;;;;1.77;0.45;;;5.90;99.90;;;;;;5134890;27;20060;-67
2022/12/07 11:27:21;;;;;;;3.00;0.32;;;5.40;99.90;;;;;;5135048;27;20043;-66
2022/12/07 11:30:14;;;;;;;3.30;0.30;;;5.50;99.90;;;;;;5117164;27;20058;-66
2022/12/07 11:33:11;;;;;;;2.50;0.35;;;5.50;99.90;;;;;;5123472;27;20059;-67
2022/12/07 11:36:03;;;;;;;3.60;0.88;;;5.60;99.90;;;;;;5135510;27;20154;-66
2022/12/07 11:38:45;;;;;;;4.00;0.47;;;5.70;99.90;;;;;;5135476;27;20047;-67
2022/12/07 11:41:12;;;;;;;2.60;0.40;;;5.80;99.90;;;;;;5116466;28;20054;-67
2022/12/07 11:43:52;;;;;;;0.55;0.20;;;5.50;99.90;;;;;;5099906;28;20047;-67
2022/12/07 11:46:18;;;;;;;1.27;0.40;;;5.60;99.90;;;;;;5117547;28;20382;-67
2022/12/07 11:48:51;;;;;;;1.95;0.43;;;6.00;99.90;;;;;;5116488;28;20130;-67
2022/12/07 11:51:20;;;;;;;4.35;0.50;;;5.50;99.90;;;;;;5135338;28;20039;-67
2022/12/07 11:54:02;;;;;;;2.95;0.68;;;6.00;99.90;;;;;;5134443;28;20126;-67
2022/12/07 11:56:29;;;;;;;2.30;0.88;;;5.80;99.90;;;;;;5133853;28;20561;-67
2022/12/07 11:59:17;;;;;;;4.13;1.02;;;5.50;99.90;;;;;;5116816;28;20391;-67
2022/12/07 12:01:45;;;;;;;3.95;0.77;;;5.70;99.90;;;;;;5135526;27;20053;-67
2022/12/07 12:04:11;;;;;;;1.83;0.50;;;6.00;99.90;;;;;;5104136;27;20521;-67
2022/12/07 12:06:44;;;;;;;4.95;0.30;;;6.10;99.90;;;;;;5139616;27;20047;-67
2022/12/07 12:09:44;;;;;;;4.65;0.40;;;6.20;99.90;;;;;;5139067;27;20135;-66
2022/12/07 12:12:31;;;;;;;3.88;0.50;;;6.40;99.90;;;;;;5120482;27;20061;-66
2022/12/07 12:15:03;;;;;;;6.38;0.40;;;6.00;99.90;;;;;;5138945;27;20066;-66
2022/12/07 12:17:57;;;;;;;5.05;0.60;;;6.50;99.90;;;;;;5138565;27;20039;-67
2022/12/07 12:21:03;;;;;;;2.33;0.40;;;5.90;99.90;;;;;;5102571;27;20165;-66
2022/12/07 12:23:32;;;;;;;1.95;0.30;;;5.90;99.90;;;;;;5138453;27;20039;-66
2022/12/07 12:26:01;;;;;;;2.70;0.40;;;5.80;99.90;;;;;;5138509;27;20051;-66
2022/12/07 12:28:50;;;;;;;1.88;0.38;;;6.10;99.90;;;;;;5138366;27;20039;-66
2022/12/07 12:31:18;;;;;;;2.60;0.40;;;5.60;99.90;;;;;;5120632;27;20039;-67
2022/12/07 12:33:50;;;;;;;3.95;0.50;;;5.90;99.90;;;;;;5138259;27;20035;-67
2022/12/07 12:36:15;;;;;;;2.67;0.50;;;5.60;99.90;;;;;;5139123;27;20050;-67
2022/12/07 12:39:06;;;;;;;4.13;0.60;;;5.90;99.90;;;;;;5138267;27;20047;-67
2022/12/07 12:44:15;;;;;;;2.13;0.52;;;5.80;99.90;;;;;;5138557;27;20047;-67
2022/12/07 12:47:01;;;;;;;3.78;0.65;;;5.80;99.90;;;;;;5119759;27;20055;-67
2022/12/07 12:49:37;;;;;;;1.75;0.30;;;5.40;99.90;;;;;;5119725;27;20047;-66
2022/12/07 12:52:14;;;;;;;2.83;0.60;;;5.40;99.90;;;;;;5119429;27;20051;-67
2022/12/07 12:55:01;;;;;;;3.50;0.90;;;5.20;99.90;;;;;;5137673;27;20063;-66
2022/12/07 12:57:33;;;;;;;2.70;0.60;;;5.40;99.90;;;;;;5119692;27;20062;-67
2022/12/07 13:00:03;;;;;;;5.67;0.87;;;5.90;99.90;;;;;;5120459;27;20062;-67
2022/12/07 13:02:36;;;;;;;2.90;0.38;;;5.50;99.90;;;;;;5120120;27;20031;-66
2022/12/07 13:05:07;;;;;;;;;;;5.80;99.90;;;;;;5139052;27;20114;-66
2022/12/07 13:07:48;;;;;;;5.03;0.70;;;5.30;99.90;;;;;;5138651;27;20002;-66
2022/12/07 13:10:34;;;;;;;4.07;0.40;;;5.20;99.90;;;;;;5137589;27;20110;-67
2022/12/07 13:13:17;;;;;;;1.08;0.47;;;6.10;99.90;;;;;;5119663;28;20065;-66
2022/12/07 13:15:45;;;;;;;2.92;0.43;;;5.70;99.90;;;;;;5137523;27;20136;-67
2022/12/07 13:18:28;;;;;;;2.03;0.40;;;5.50;99.90;;;;;;5119735;27;20050;-67
2022/12/07 13:21:09;;;;;;;3.73;0.50;;;5.20;99.90;;;;;;5137910;27;20053;-67
2022/12/07 13:23:44;;;;;;;1.38;0.28;;;5.50;99.90;;;;;;5137985;27;20039;-67